Time;durP1;ratioP1;P1;durP2;ratioP2;P2;SDS_P1;SDS_P2;PMS_P1;PMS_P2;Temp;Humidity;BMP_temperature;BMP_pressure;BME280_temperature;BME280_humidity;BME280_pressure;Samples;Min_cycle;Max_cycle;Signal;HPM_P1;HPM_P2
2021/10/16 00:02:07;;;;;;;276.55;240.38;;;7.00;99.90;;;;;;5097116;28;20199;-77
2021/10/16 00:04:34;;;;;;;300.15;260.90;;;7.00;99.90;;;;;;5096008;28;20232;-77
2021/10/16 00:07:03;;;;;;;263.55;210.40;;;7.00;99.90;;;;;;5078426;28;20287;-77
2021/10/16 00:09:30;;;;;;;301.08;265.73;;;6.90;99.90;;;;;;5087034;28;20227;-76
2021/10/16 00:11:57;;;;;;;273.85;228.48;;;6.80;99.90;;;;;;5088738;28;20201;-76
2021/10/16 00:14:23;;;;;;;296.10;251.70;;;6.80;99.90;;;;;;5091511;28;20204;-76
2021/10/16 00:16:50;;;;;;;288.98;236.27;;;6.80;99.90;;;;;;5087864;28;20227;-76
2021/10/16 00:19:17;;;;;;;311.30;264.20;;;6.80;99.90;;;;;;5087507;28;20725;-76
2021/10/16 00:21:44;;;;;;;304.13;256.80;;;6.70;99.90;;;;;;5086919;28;20215;-76
2021/10/16 00:24:13;;;;;;;306.58;242.23;;;6.70;99.90;;;;;;5087296;28;20196;-77
2021/10/16 00:26:46;;;;;;;296.83;231.23;;;6.70;99.90;;;;;;5099546;28;20191;-76
2021/10/16 00:29:13;;;;;;;301.15;239.55;;;6.60;99.90;;;;;;5096192;28;20266;-76
2021/10/16 00:31:40;;;;;;;298.80;253.50;;;6.60;99.90;;;;;;5091745;28;20712;-76
2021/10/16 00:34:09;;;;;;;292.08;251.07;;;6.60;99.90;;;;;;5091662;28;20181;-77
2021/10/16 00:36:36;;;;;;;309.25;245.80;;;6.60;99.90;;;;;;5087678;28;20204;-76
2021/10/16 00:39:04;;;;;;;272.48;197.30;;;6.60;99.90;;;;;;5087832;28;20250;-77
2021/10/16 00:41:32;;;;;;;299.05;261.27;;;6.60;99.90;;;;;;5087849;28;20197;-76
2021/10/16 00:44:15;;;;;;;306.77;262.85;;;6.60;99.90;;;;;;5095604;28;20266;-76
2021/10/16 00:46:42;;;;;;;300.65;225.48;;;6.50;99.90;;;;;;5087851;28;20262;-76
2021/10/16 00:49:09;;;;;;;276.58;201.15;;;6.60;99.90;;;;;;5087027;28;20253;-76
2021/10/16 00:51:37;;;;;;;304.33;253.93;;;6.50;99.90;;;;;;5087183;28;20219;-76
2021/10/16 00:54:07;;;;;;;299.23;250.63;;;6.50;99.90;;;;;;5090815;28;20202;-76
2021/10/16 00:56:36;;;;;;;315.17;260.75;;;6.50;99.90;;;;;;5087062;28;20639;-77
2021/10/16 00:59:04;;;;;;;297.95;241.13;;;6.50;99.90;;;;;;5091363;28;20196;-77
2021/10/16 01:01:31;;;;;;;302.50;257.13;;;6.50;99.90;;;;;;5097014;28;20196;-76
2021/10/16 01:03:59;;;;;;;302.25;250.30;;;6.50;99.90;;;;;;5086726;28;20231;-76
2021/10/16 01:06:26;;;;;;;291.50;235.25;;;6.40;99.90;;;;;;5086831;28;20227;-77
2021/10/16 01:08:55;;;;;;;283.77;224.27;;;6.40;99.90;;;;;;5092463;28;20229;-77
2021/10/16 01:11:31;;;;;;;280.40;214.85;;;6.40;99.90;;;;;;5090288;28;20259;-77
2021/10/16 01:14:00;;;;;;;274.52;191.27;;;6.30;99.90;;;;;;5086817;28;20201;-76
2021/10/16 01:16:27;;;;;;;299.77;239.18;;;6.30;99.90;;;;;;5094927;28;20200;-76
2021/10/16 01:18:54;;;;;;;281.55;223.93;;;6.30;99.90;;;;;;5086955;28;20204;-76
2021/10/16 01:21:23;;;;;;;276.02;179.32;;;6.30;99.90;;;;;;5086256;28;20227;-76
2021/10/16 01:23:51;;;;;;;311.73;244.77;;;6.30;99.90;;;;;;5086727;28;20209;-77
2021/10/16 01:26:18;;;;;;;288.17;214.88;;;6.20;99.90;;;;;;5086485;28;20702;-77
2021/10/16 01:28:45;;;;;;;288.20;217.60;;;6.20;99.90;;;;;;5086414;28;20224;-76
2021/10/16 01:31:12;;;;;;;285.00;208.57;;;6.20;99.90;;;;;;5086304;28;20226;-76
2021/10/16 01:33:39;;;;;;;284.08;197.20;;;6.10;99.90;;;;;;5085581;28;20258;-77
2021/10/16 01:36:07;;;;;;;287.83;221.82;;;6.10;99.90;;;;;;5086613;28;20208;-76
2021/10/16 01:38:35;;;;;;;284.63;220.38;;;6.10;99.90;;;;;;5075369;28;20208;-77
2021/10/16 01:41:02;;;;;;;291.73;220.75;;;6.10;99.90;;;;;;5093083;28;20262;-76
2021/10/16 01:43:29;;;;;;;284.35;207.52;;;6.20;99.90;;;;;;5091751;28;20254;-76
2021/10/16 01:45:56;;;;;;;288.70;231.30;;;6.20;99.90;;;;;;5093173;28;20196;-76
2021/10/16 01:48:23;;;;;;;263.77;180.77;;;6.10;99.90;;;;;;5092607;28;20250;-76
2021/10/16 01:50:51;;;;;;;301.60;236.75;;;6.10;99.90;;;;;;5086647;28;20204;-77
2021/10/16 01:53:23;;;;;;;276.95;217.50;;;6.00;99.90;;;;;;5089354;28;20201;-76
2021/10/16 01:55:51;;;;;;;308.13;232.35;;;6.00;99.90;;;;;;5086391;28;20628;-76
2021/10/16 01:58:18;;;;;;;265.58;181.73;;;5.90;99.90;;;;;;5092673;28;20210;-76
2021/10/16 02:00:47;;;;;;;280.10;197.73;;;5.90;99.90;;;;;;5089891;28;20239;-76
2021/10/16 02:03:15;;;;;;;295.55;222.20;;;5.90;99.90;;;;;;5092105;28;20278;-77
2021/10/16 02:05:43;;;;;;;278.83;187.40;;;6.00;99.90;;;;;;5086587;28;20208;-77
2021/10/16 02:08:10;;;;;;;291.20;233.43;;;5.90;99.90;;;;;;5086977;28;20224;-76
2021/10/16 02:10:37;;;;;;;265.40;183.23;;;5.90;99.90;;;;;;5090479;28;20200;-76
2021/10/16 02:13:06;;;;;;;304.55;233.85;;;5.80;99.90;;;;;;5092571;28;20269;-76
2021/10/16 02:15:33;;;;;;;303.35;231.55;;;5.80;99.90;;;;;;5093580;28;20226;-77
2021/10/16 02:18:00;;;;;;;300.25;234.82;;;5.80;99.90;;;;;;5090924;28;20212;-77
2021/10/16 02:20:27;;;;;;;285.63;212.25;;;5.70;99.90;;;;;;5086235;28;20540;-77
2021/10/16 02:22:54;;;;;;;295.27;218.02;;;5.70;99.90;;;;;;5089509;28;20196;-77
2021/10/16 02:25:21;;;;;;;276.27;182.35;;;5.70;99.90;;;;;;5096249;28;20234;-77
2021/10/16 02:27:48;;;;;;;306.15;237.15;;;5.70;99.90;;;;;;5086800;28;20220;-77
2021/10/16 02:30:16;;;;;;;287.05;186.07;;;5.80;99.90;;;;;;5090393;28;20208;-77
2021/10/16 02:32:43;;;;;;;297.17;209.40;;;5.80;99.90;;;;;;5086054;28;20640;-77
2021/10/16 02:35:10;;;;;;;279.92;203.50;;;5.80;99.90;;;;;;5086001;28;20193;-76
2021/10/16 02:37:37;;;;;;;267.50;176.48;;;5.80;99.90;;;;;;5073972;28;20208;-76
2021/10/16 02:40:05;;;;;;;293.55;208.82;;;5.80;99.90;;;;;;5090952;28;20238;-77
2021/10/16 02:42:32;;;;;;;283.08;202.70;;;5.70;99.90;;;;;;5089396;28;20200;-77
2021/10/16 02:44:59;;;;;;;287.83;213.82;;;5.70;99.90;;;;;;5086038;28;20196;-77
2021/10/16 02:47:31;;;;;;;279.08;201.05;;;5.70;99.90;;;;;;5093493;28;20200;-76
2021/10/16 02:49:57;;;;;;;272.13;171.38;;;5.80;99.90;;;;;;5089764;28;20235;-77
2021/10/16 02:52:24;;;;;;;263.02;161.40;;;5.80;99.90;;;;;;5089563;28;20204;-77
2021/10/16 02:54:51;;;;;;;283.98;167.57;;;5.80;99.90;;;;;;5094831;28;20207;-76
2021/10/16 02:57:18;;;;;;;304.58;223.35;;;5.80;99.90;;;;;;5089508;28;20196;-77
2021/10/16 02:59:45;;;;;;;278.13;212.30;;;5.70;99.90;;;;;;5100121;28;20212;-77
2021/10/16 03:02:12;;;;;;;272.08;182.30;;;5.70;99.90;;;;;;5089295;28;20207;-77
2021/10/16 03:04:41;;;;;;;275.30;208.68;;;5.60;99.90;;;;;;5095055;28;20779;-77
2021/10/16 03:07:08;;;;;;;269.15;175.80;;;5.60;99.90;;;;;;5090241;28;20316;-77
2021/10/16 03:09:35;;;;;;;249.38;171.43;;;5.70;99.90;;;;;;5089329;28;20232;-76
2021/10/16 03:12:02;;;;;;;254.45;171.75;;;5.70;99.90;;;;;;5093769;28;20229;-77
2021/10/16 03:14:29;;;;;;;252.45;181.07;;;5.60;99.90;;;;;;5091949;28;20200;-76
2021/10/16 03:16:55;;;;;;;268.98;169.02;;;5.60;99.90;;;;;;5091016;28;20223;-76
2021/10/16 03:19:22;;;;;;;271.65;182.82;;;5.70;99.90;;;;;;5088601;28;20223;-76
2021/10/16 03:21:51;;;;;;;278.02;205.05;;;5.70;99.90;;;;;;5089130;28;20205;-76
2021/10/16 03:24:18;;;;;;;262.17;166.07;;;5.70;99.90;;;;;;5092418;28;20609;-76
2021/10/16 03:26:45;;;;;;;254.40;160.90;;;5.60;99.90;;;;;;5098905;28;20261;-76
2021/10/16 03:29:12;;;;;;;279.60;197.05;;;5.60;99.90;;;;;;5097785;28;20246;-76
2021/10/16 03:31:39;;;;;;;276.35;182.45;;;5.60;99.90;;;;;;5089361;28;20259;-76
2021/10/16 03:34:07;;;;;;;273.17;207.52;;;5.60;99.90;;;;;;5094293;28;20605;-76
2021/10/16 03:36:34;;;;;;;275.25;203.13;;;5.50;99.90;;;;;;5088994;28;20204;-77
2021/10/16 03:39:02;;;;;;;265.40;185.80;;;5.50;99.90;;;;;;5089304;28;20254;-76
2021/10/16 03:41:29;;;;;;;271.50;194.15;;;5.50;99.90;;;;;;5089789;28;20201;-76
2021/10/16 03:43:56;;;;;;;248.38;160.55;;;5.40;99.90;;;;;;5104597;28;20208;-76
2021/10/16 03:46:23;;;;;;;272.80;188.93;;;5.40;99.90;;;;;;5092606;28;20235;-76
2021/10/16 03:48:50;;;;;;;270.33;188.82;;;5.40;99.90;;;;;;5092883;28;20232;-76
2021/10/16 03:51:17;;;;;;;265.25;155.75;;;5.40;99.90;;;;;;5090492;28;20205;-77
2021/10/16 03:53:44;;;;;;;283.77;187.55;;;5.40;99.90;;;;;;5097907;28;20230;-77
2021/10/16 03:56:12;;;;;;;280.38;185.05;;;5.40;99.90;;;;;;5096429;28;20227;-76
2021/10/16 03:58:40;;;;;;;271.02;154.70;;;5.40;99.90;;;;;;5093468;28;20204;-76
2021/10/16 04:01:07;;;;;;;282.30;193.85;;;5.40;99.90;;;;;;5088020;28;20197;-76
2021/10/16 04:03:36;;;;;;;272.20;154.23;;;5.30;99.90;;;;;;5087819;28;20236;-76
2021/10/16 04:06:04;;;;;;;293.70;205.73;;;5.30;99.90;;;;;;5088036;28;20205;-77
2021/10/16 04:08:31;;;;;;;285.25;186.73;;;5.30;99.90;;;;;;5087777;28;20250;-76
2021/10/16 04:10:58;;;;;;;283.95;188.98;;;5.30;99.90;;;;;;5092414;28;20200;-76
2021/10/16 04:13:26;;;;;;;293.67;203.50;;;5.20;99.90;;;;;;5088034;28;20231;-76
2021/10/16 04:15:53;;;;;;;287.67;200.32;;;5.20;99.90;;;;;;5094891;28;20208;-77
2021/10/16 04:18:20;;;;;;;276.42;193.73;;;5.10;99.90;;;;;;5087967;28;20200;-76
2021/10/16 04:20:47;;;;;;;285.92;187.82;;;5.10;99.90;;;;;;5087600;28;20204;-76
2021/10/16 04:23:14;;;;;;;276.83;190.27;;;5.10;99.90;;;;;;5087939;28;20223;-76
2021/10/16 04:25:41;;;;;;;278.85;189.05;;;5.10;99.90;;;;;;5092028;28;20209;-76
2021/10/16 04:28:07;;;;;;;271.45;160.45;;;5.10;99.90;;;;;;5094560;28;20204;-77
2021/10/16 04:30:36;;;;;;;294.17;194.55;;;5.10;99.90;;;;;;5098294;28;20520;-76
2021/10/16 04:33:03;;;;;;;302.77;181.80;;;5.10;99.90;;;;;;5087181;28;20729;-76
2021/10/16 04:35:30;;;;;;;300.40;183.98;;;5.20;99.90;;;;;;5093924;28;20205;-76
2021/10/16 04:37:57;;;;;;;278.83;157.05;;;5.20;99.90;;;;;;5091609;28;20223;-76
2021/10/16 04:40:26;;;;;;;291.33;177.77;;;5.10;99.90;;;;;;5087512;28;20246;-76
2021/10/16 04:42:54;;;;;;;278.58;176.77;;;5.10;99.90;;;;;;5091791;28;20206;-76
2021/10/16 04:45:22;;;;;;;293.90;184.98;;;5.10;99.90;;;;;;5088290;28;20196;-77
2021/10/16 04:47:51;;;;;;;267.67;147.57;;;5.10;99.90;;;;;;5087254;28;20555;-76
2021/10/16 04:50:17;;;;;;;279.80;149.48;;;5.00;99.90;;;;;;5091917;28;20287;-76
2021/10/16 04:52:44;;;;;;;277.27;147.75;;;5.00;99.90;;;;;;5093841;28;20200;-76
2021/10/16 04:55:11;;;;;;;297.15;182.95;;;4.90;99.90;;;;;;5092514;28;20211;-76
2021/10/16 04:57:39;;;;;;;296.65;180.32;;;5.00;99.90;;;;;;5086622;28;20200;-76
2021/10/16 05:00:07;;;;;;;306.27;179.82;;;5.00;99.90;;;;;;5086957;28;20205;-76
2021/10/16 05:02:34;;;;;;;297.10;183.07;;;5.00;99.90;;;;;;5092369;28;20228;-76
2021/10/16 05:05:03;;;;;;;302.70;181.45;;;5.00;99.90;;;;;;5087002;28;20230;-76
2021/10/16 05:07:30;;;;;;;301.50;185.98;;;4.90;99.90;;;;;;5086207;28;20254;-76
2021/10/16 05:09:57;;;;;;;310.73;196.82;;;4.90;99.90;;;;;;5086209;28;20281;-76
2021/10/16 05:12:24;;;;;;;305.33;175.60;;;4.90;99.90;;;;;;5101077;28;20223;-76
2021/10/16 05:14:51;;;;;;;291.33;165.50;;;4.90;99.90;;;;;;5099313;28;20237;-76
2021/10/16 05:17:18;;;;;;;299.73;187.30;;;5.00;99.90;;;;;;5089084;28;20205;-76
2021/10/16 05:19:45;;;;;;;298.52;181.85;;;5.00;99.90;;;;;;5089136;28;20823;-76
2021/10/16 05:22:16;;;;;;;293.63;145.93;;;4.90;99.90;;;;;;5095197;28;20188;-76
2021/10/16 05:24:44;;;;;;;314.48;175.55;;;4.90;99.90;;;;;;5087611;28;20208;-76
2021/10/16 05:27:11;;;;;;;309.90;170.82;;;4.90;99.90;;;;;;5075724;28;20204;-76
2021/10/16 05:29:38;;;;;;;305.05;173.40;;;4.90;99.90;;;;;;5091332;28;20221;-76
2021/10/16 05:32:06;;;;;;;289.73;148.52;;;4.90;99.90;;;;;;5091842;28;21504;-76
2021/10/16 05:34:33;;;;;;;291.55;152.52;;;4.90;99.90;;;;;;5088131;28;20247;-76
2021/10/16 05:36:59;;;;;;;289.92;167.27;;;4.80;99.90;;;;;;5087502;28;20223;-77
2021/10/16 05:39:28;;;;;;;281.48;161.30;;;4.80;99.90;;;;;;5086584;28;20209;-76
2021/10/16 05:41:55;;;;;;;290.15;151.85;;;4.80;99.90;;;;;;5092823;28;20227;-76
2021/10/16 05:44:23;;;;;;;282.55;144.35;;;4.80;99.90;;;;;;5091645;28;20581;-76
2021/10/16 05:46:50;;;;;;;306.52;188.85;;;4.80;99.90;;;;;;5086662;28;20231;-76
2021/10/16 05:49:17;;;;;;;280.50;150.38;;;4.80;99.90;;;;;;5090991;28;20220;-76
2021/10/16 05:51:44;;;;;;;298.05;177.48;;;4.80;99.90;;;;;;5090871;28;20204;-76
2021/10/16 05:54:11;;;;;;;270.38;136.70;;;4.90;99.90;;;;;;5093290;28;20204;-76
2021/10/16 05:56:39;;;;;;;316.13;179.85;;;4.90;99.90;;;;;;5086828;28;20227;-76
2021/10/16 05:59:06;;;;;;;312.92;173.55;;;5.00;99.90;;;;;;5087235;28;20204;-77
2021/10/16 06:01:34;;;;;;;304.35;173.27;;;5.00;99.90;;;;;;5091839;28;20547;-77
2021/10/16 06:04:01;;;;;;;415.45;381.00;;;5.00;99.90;;;;;;5084685;28;20578;-76
2021/10/16 06:06:27;;;;;;;317.13;210.50;;;5.10;99.90;;;;;;5103227;28;20196;-76
2021/10/16 06:08:54;;;;;;;313.83;197.48;;;5.10;99.90;;;;;;5100037;28;20277;-76
2021/10/16 06:11:21;;;;;;;314.08;198.68;;;5.20;99.90;;;;;;5085978;28;20201;-76
2021/10/16 06:13:50;;;;;;;319.60;194.38;;;5.30;99.90;;;;;;5086097;28;20235;-76
2021/10/16 06:16:17;;;;;;;316.48;211.43;;;5.30;99.90;;;;;;5085932;28;20213;-76
2021/10/16 06:18:44;;;;;;;308.00;189.00;;;5.40;99.90;;;;;;5085174;28;20644;-76
2021/10/16 06:21:12;;;;;;;305.77;189.18;;;5.40;99.90;;;;;;5090689;28;20208;-76
2021/10/16 06:23:39;;;;;;;314.38;198.43;;;5.50;99.90;;;;;;5098790;28;20254;-76
2021/10/16 06:26:06;;;;;;;317.48;193.55;;;5.50;99.90;;;;;;5092955;28;20204;-76
2021/10/16 06:28:33;;;;;;;319.33;217.57;;;5.50;99.90;;;;;;5097601;28;20200;-76
2021/10/16 06:31:01;;;;;;;296.90;172.98;;;5.60;99.90;;;;;;5103425;28;20224;-76
2021/10/16 06:33:28;;;;;;;322.50;221.80;;;5.60;99.90;;;;;;5094603;28;20254;-76
2021/10/16 06:35:55;;;;;;;301.58;206.43;;;5.70;99.90;;;;;;5089351;28;20235;-76
2021/10/16 06:38:23;;;;;;;283.67;173.77;;;5.80;99.90;;;;;;5093719;28;20582;-76
2021/10/16 06:40:49;;;;;;;344.67;207.52;;;5.90;99.90;;;;;;5090639;28;20208;-76
2021/10/16 06:43:16;;;;;;;335.13;249.68;;;5.90;99.90;;;;;;5093320;28;20867;-77
2021/10/16 06:45:43;;;;;;;336.30;236.30;;;6.00;99.90;;;;;;5089698;28;20205;-77
2021/10/16 06:48:11;;;;;;;330.83;239.40;;;6.00;99.90;;;;;;5089746;28;20231;-76
2021/10/16 06:50:38;;;;;;;320.88;225.20;;;6.10;99.90;;;;;;5089992;28;20220;-76
2021/10/16 06:53:05;;;;;;;315.55;194.93;;;6.20;99.90;;;;;;5089389;28;20201;-76
2021/10/16 06:55:32;;;;;;;326.10;220.55;;;6.30;99.90;;;;;;5089225;28;20223;-76
2021/10/16 06:57:59;;;;;;;312.70;203.52;;;6.30;99.90;;;;;;5089624;28;20582;-76
2021/10/16 07:00:26;;;;;;;306.80;198.60;;;6.40;99.90;;;;;;5093579;28;20204;-77
2021/10/16 07:02:53;;;;;;;310.60;195.43;;;6.50;99.90;;;;;;5091052;28;20258;-76
2021/10/16 07:05:21;;;;;;;298.80;197.93;;;6.60;99.90;;;;;;5095990;28;20203;-76
2021/10/16 07:07:48;;;;;;;318.10;237.25;;;6.70;99.90;;;;;;5094816;28;20204;-76
2021/10/16 07:10:15;;;;;;;312.42;213.95;;;6.80;99.90;;;;;;5094858;28;20228;-76
2021/10/16 07:12:42;;;;;;;342.15;254.25;;;6.90;99.90;;;;;;5098311;28;20212;-78
2021/10/16 07:15:09;;;;;;;321.30;221.27;;;6.90;99.90;;;;;;5089385;28;20218;-77
2021/10/16 07:17:37;;;;;;;329.73;207.02;;;7.00;99.90;;;;;;5093148;28;20196;-77
2021/10/16 07:20:06;;;;;;;334.15;255.10;;;7.10;99.90;;;;;;5089238;28;20211;-77
2021/10/16 07:22:34;;;;;;;342.52;260.17;;;7.20;99.90;;;;;;5097648;28;20238;-77
2021/10/16 07:25:01;;;;;;;343.70;257.90;;;7.30;99.90;;;;;;5090217;28;20204;-77
2021/10/16 07:27:28;;;;;;;344.02;265.50;;;7.40;99.90;;;;;;5099255;28;20203;-77
2021/10/16 07:29:55;;;;;;;317.88;231.55;;;7.50;99.90;;;;;;5088001;28;20712;-77
2021/10/16 07:32:21;;;;;;;337.50;265.98;;;7.50;99.90;;;;;;5087880;28;20198;-77
2021/10/16 07:34:48;;;;;;;347.40;282.02;;;7.50;99.90;;;;;;5092444;28;20208;-77
2021/10/16 07:37:15;;;;;;;339.13;250.90;;;7.50;99.90;;;;;;5092991;28;20222;-77
2021/10/16 07:39:44;;;;;;;334.35;254.50;;;7.60;99.90;;;;;;5090783;28;20279;-77
2021/10/16 07:42:10;;;;;;;346.45;287.92;;;7.70;99.90;;;;;;5093575;28;20201;-77
2021/10/16 07:44:37;;;;;;;356.35;307.48;;;7.80;99.90;;;;;;5088423;28;20209;-77
2021/10/16 07:47:04;;;;;;;353.85;292.40;;;7.90;99.90;;;;;;5088966;28;20205;-77
2021/10/16 07:49:31;;;;;;;365.42;303.73;;;8.10;99.90;;;;;;5093758;28;20220;-77
2021/10/16 07:51:58;;;;;;;339.92;263.80;;;8.20;99.90;;;;;;5092847;28;20255;-77
2021/10/16 07:54:25;;;;;;;346.42;304.02;;;8.30;99.90;;;;;;5092123;28;20200;-77
2021/10/16 07:56:53;;;;;;;358.38;300.83;;;8.40;99.90;;;;;;5105548;28;20235;-77
2021/10/16 07:59:21;;;;;;;347.52;306.83;;;8.40;99.90;;;;;;5090077;28;20200;-77
2021/10/16 08:01:47;;;;;;;344.52;296.80;;;8.40;99.90;;;;;;5088270;28;20260;-77
2021/10/16 08:04:14;;;;;;;354.73;314.33;;;8.50;99.90;;;;;;5087944;28;20244;-77
2021/10/16 08:06:41;;;;;;;384.65;344.10;;;8.60;99.90;;;;;;5093148;28;20254;-77
2021/10/16 08:09:08;;;;;;;343.83;298.05;;;8.70;99.90;;;;;;5088395;28;20701;-77
2021/10/16 08:11:36;;;;;;;378.35;340.20;;;8.80;99.90;;;;;;5094637;28;20321;-77
2021/10/16 08:14:05;;;;;;;389.77;350.63;;;8.90;99.90;;;;;;5091621;28;20202;-77
2021/10/16 08:16:32;;;;;;;416.30;376.70;;;9.00;99.90;;;;;;5094893;28;20201;-77
2021/10/16 08:18:59;;;;;;;388.20;349.10;;;9.10;99.90;;;;;;5088274;28;20203;-77
2021/10/16 08:21:26;;;;;;;413.58;373.17;;;9.20;99.90;;;;;;5088444;28;20197;-77
2021/10/16 08:23:53;;;;;;;404.88;365.15;;;9.30;99.90;;;;;;5091915;28;20192;-77
2021/10/16 08:26:20;;;;;;;418.20;379.42;;;9.40;99.90;;;;;;5094758;28;20320;-77
2021/10/16 08:28:48;;;;;;;376.88;338.33;;;9.50;99.90;;;;;;5091068;28;20635;-77
2021/10/16 08:31:17;;;;;;;426.10;386.85;;;9.60;99.90;;;;;;5087892;28;20315;-77
2021/10/16 08:33:44;;;;;;;431.10;390.45;;;9.60;99.90;;;;;;5074464;28;20211;-77
2021/10/16 08:36:12;;;;;;;409.70;369.50;;;9.70;99.90;;;;;;5087038;28;20216;-77
2021/10/16 08:38:39;;;;;;;447.95;409.83;;;9.70;99.90;;;;;;5094255;28;20850;-77
2021/10/16 08:41:09;;;;;;;397.25;358.67;;;9.80;99.90;;;;;;5092526;28;20238;-77
2021/10/16 08:43:36;;;;;;;441.38;402.20;;;10.00;99.90;;;;;;5085772;28;20204;-77
2021/10/16 08:46:04;;;;;;;477.05;434.95;;;10.10;99.90;;;;;;5087169;28;20204;-77
2021/10/16 08:48:32;;;;;;;454.15;414.10;;;10.10;99.90;;;;;;5088649;28;20222;-77
2021/10/16 08:51:01;;;;;;;493.35;451.98;;;10.20;99.90;;;;;;5094469;28;20228;-77
2021/10/16 08:53:28;;;;;;;463.42;422.60;;;10.20;99.90;;;;;;5093232;28;20196;-77
2021/10/16 08:55:55;;;;;;;485.17;444.10;;;10.40;99.90;;;;;;5092039;28;20227;-77
2021/10/16 08:58:25;;;;;;;473.85;434.80;;;10.50;99.90;;;;;;5087540;28;20200;-77
2021/10/16 09:00:54;;;;;;;493.80;453.55;;;10.70;99.90;;;;;;5087178;28;20200;-77
2021/10/16 09:03:24;;;;;;;463.90;425.13;;;10.70;99.90;;;;;;5087142;28;20220;-77
2021/10/16 09:06:01;;;;;;;497.40;457.70;;;10.70;99.90;;;;;;5088237;28;20230;-77
2021/10/16 09:08:29;;;;;;;458.52;419.83;;;10.80;99.90;;;;;;5094885;28;20625;-77
2021/10/16 09:11:12;;;;;;;428.60;390.27;;;10.80;99.90;;;;;;5100798;28;20251;-76
2021/10/16 09:13:44;;;;;;;430.02;392.33;;;10.80;99.90;;;;;;5088546;28;20225;-76
2021/10/16 09:16:30;;;;;;;492.00;450.55;;;10.90;99.90;;;;;;5099090;28;20221;-76
2021/10/16 09:19:00;;;;;;;460.15;421.75;;;10.90;99.90;;;;;;5086613;28;20219;-76
2021/10/16 09:21:30;;;;;;;441.92;403.13;;;11.10;99.90;;;;;;5091406;28;20228;-76
2021/10/16 09:24:06;;;;;;;480.50;440.27;;;11.10;99.90;;;;;;5087326;28;20201;-76
2021/10/16 09:26:40;;;;;;;497.88;457.50;;;11.20;99.90;;;;;;5088140;28;20207;-77
2021/10/16 09:29:10;;;;;;;533.90;491.77;;;11.20;99.90;;;;;;5097625;28;20234;-77
2021/10/16 09:31:40;;;;;;;514.92;474.08;;;11.30;99.90;;;;;;5095423;28;20237;-77
2021/10/16 09:34:07;;;;;;;510.98;471.70;;;11.40;99.90;;;;;;5088435;28;20696;-77
2021/10/16 09:36:37;;;;;;;534.75;492.95;;;11.60;99.90;;;;;;5095736;28;20199;-77
2021/10/16 09:39:06;;;;;;;524.67;483.95;;;11.70;99.90;;;;;;5088448;28;20224;-77
2021/10/16 09:41:35;;;;;;;492.02;453.17;;;11.70;99.90;;;;;;5088001;28;20265;-77
2021/10/16 09:44:03;;;;;;;549.78;508.33;;;11.70;99.90;;;;;;5087910;28;20207;-77
2021/10/16 09:46:31;;;;;;;545.58;504.20;;;11.80;99.90;;;;;;5092145;28;20222;-77
2021/10/16 09:49:07;;;;;;;565.55;522.25;;;11.70;99.90;;;;;;5094227;28;20200;-78
2021/10/16 09:51:51;;;;;;;561.25;520.05;;;11.80;99.90;;;;;;5071135;28;20232;-77
2021/10/16 09:54:18;;;;;;;563.13;521.20;;;12.10;99.90;;;;;;5097351;28;20210;-77
2021/10/16 09:56:46;;;;;;;554.88;514.65;;;12.30;99.90;;;;;;5087113;28;20215;-78
2021/10/16 09:59:16;;;;;;;517.65;478.75;;;12.60;99.90;;;;;;5093842;28;20284;-77
2021/10/16 10:08:18;;;;;;;577.55;536.92;;;13.30;99.90;;;;;;5103278;28;20581;-76
2021/10/16 10:10:46;;;;;;;579.15;538.83;;;13.60;99.90;;;;;;5115140;28;20229;-76
2021/10/16 10:13:14;;;;;;;584.40;542.55;;;13.60;99.90;;;;;;5110714;28;20265;-76
2021/10/16 10:15:41;;;;;;;577.13;537.42;;;13.70;99.90;;;;;;5108574;28;20205;-76
2021/10/16 10:21:00;;;;;;;602.97;560.65;;;14.00;99.90;;;;;;5098122;28;20196;-76
2021/10/16 10:23:29;;;;;;;582.38;541.70;;;14.20;99.90;;;;;;5109856;28;20223;-76
2021/10/16 10:26:25;;;;;;;571.92;532.83;;;14.30;99.90;;;;;;5103503;28;20200;-76
2021/10/16 10:28:58;;;;;;;563.83;523.97;;;14.30;99.90;;;;;;5102630;28;20197;-77
2021/10/16 10:31:54;;;;;;;599.60;557.10;;;14.50;99.90;;;;;;5102820;28;20257;-76
2021/10/16 10:34:22;;;;;;;566.95;526.25;;;14.60;99.90;;;;;;5107600;28;20200;-76
2021/10/16 10:36:51;;;;;;;567.55;527.65;;;14.60;99.90;;;;;;5103219;28;20228;-76
2021/10/16 10:39:42;;;;;;;557.03;517.80;;;14.60;99.90;;;;;;5111718;28;20205;-76
2021/10/16 10:42:43;;;;;;;529.50;492.02;;;14.80;99.90;;;;;;5101234;28;20197;-76
2021/10/16 10:45:39;;;;;;;558.13;518.08;;;15.00;99.90;;;;;;5084035;28;20226;-76
2021/10/16 10:48:17;;;;;;;570.17;530.78;;;15.00;99.90;;;;;;5087927;28;21008;-76
2021/10/16 10:50:59;;;;;;;550.42;511.33;;;15.00;99.90;;;;;;5081053;28;20203;-76
2021/10/16 10:53:34;;;;;;;557.65;518.85;;;14.90;99.90;;;;;;5093066;28;20201;-76
2021/10/16 10:56:06;;;;;;;522.65;485.63;;;14.60;99.90;;;;;;5089906;28;20268;-76
2021/10/16 10:59:00;;;;;;;500.98;465.02;;;14.40;99.90;;;;;;5086816;28;20197;-76
2021/10/16 11:02:01;;;;;;;548.67;509.63;;;14.10;99.90;;;;;;5090234;28;20267;-76
2021/10/16 11:04:55;;;;;;;531.58;493.88;;;13.70;99.90;;;;;;5080129;28;20257;-76
2021/10/16 11:07:39;;;;;;;558.70;519.58;;;13.70;99.90;;;;;;5001086;28;20197;-76
2021/10/16 11:10:07;;;;;;;537.03;498.63;;;13.70;99.90;;;;;;5001189;28;20216;-76
2021/10/16 11:12:39;;;;;;;544.70;505.95;;;13.50;99.90;;;;;;5007911;28;20207;-76
2021/10/16 11:15:08;;;;;;;541.30;503.75;;;13.40;99.90;;;;;;4997385;28;20244;-77
2021/10/16 11:17:40;;;;;;;544.03;505.00;;;13.40;99.90;;;;;;5026658;28;20202;-77
2021/10/16 11:20:09;;;;;;;541.80;504.05;;;13.40;99.90;;;;;;5027077;28;20206;-76
2021/10/16 11:22:51;;;;;;;522.20;485.63;;;13.40;99.90;;;;;;5032810;28;20267;-76
2021/10/16 11:25:21;;;;;;;510.80;474.80;;;13.30;99.90;;;;;;5032173;28;20349;-76
2021/10/16 11:28:16;;;;;;;523.17;485.52;;;13.30;99.90;;;;;;5028310;28;20265;-76
2021/10/16 11:30:45;;;;;;;529.05;491.48;;;13.40;99.90;;;;;;4972797;28;20216;-76
2021/10/16 11:33:14;;;;;;;497.63;462.08;;;13.60;99.90;;;;;;4979495;28;20209;-76
2021/10/16 11:35:42;;;;;;;524.47;486.67;;;13.60;99.90;;;;;;4976307;28;20204;-76
2021/10/16 11:38:11;;;;;;;539.97;501.73;;;13.70;99.90;;;;;;4971123;28;20204;-76
2021/10/16 11:40:39;;;;;;;498.67;463.27;;;13.70;99.90;;;;;;4975863;28;20202;-76
2021/10/16 11:43:11;;;;;;;500.50;464.98;;;13.80;99.90;;;;;;4999974;28;20296;-77
2021/10/16 11:45:41;;;;;;;526.78;488.05;;;13.80;99.90;;;;;;5025994;28;20208;-76
2021/10/16 11:48:12;;;;;;;515.90;480.40;;;13.70;99.90;;;;;;5026744;28;20207;-76
2021/10/16 11:50:41;;;;;;;551.80;513.47;;;13.80;99.90;;;;;;5026407;28;20284;-76
2021/10/16 11:53:11;;;;;;;563.60;524.92;;;13.80;99.90;;;;;;5029456;28;20248;-76
2021/10/16 11:55:39;;;;;;;525.53;488.85;;;13.90;99.90;;;;;;5036320;28;20582;-76
2021/10/16 11:58:07;;;;;;;563.72;525.17;;;14.00;99.90;;;;;;5032027;28;20396;-76
2021/10/16 12:00:35;;;;;;;533.97;496.23;;;14.00;99.90;;;;;;5026299;28;20203;-76
2021/10/16 12:03:10;;;;;;;547.55;509.15;;;14.10;99.90;;;;;;5034290;28;20285;-76
2021/10/16 12:05:41;;;;;;;559.85;521.47;;;14.20;99.90;;;;;;5038799;28;20205;-77
2021/10/16 12:08:16;;;;;;;527.70;490.38;;;14.30;99.90;;;;;;5087345;28;20201;-76
2021/10/16 12:10:49;;;;;;;525.95;490.63;;;14.30;99.90;;;;;;5087968;28;20202;-77
2021/10/16 12:13:23;;;;;;;528.97;493.30;;;14.30;99.90;;;;;;5087003;28;20349;-76
2021/10/16 12:15:51;;;;;;;549.47;511.67;;;14.30;99.90;;;;;;5088031;28;20248;-77
2021/10/16 12:18:22;;;;;;;551.05;513.15;;;14.20;99.90;;;;;;5087368;28;20229;-76
2021/10/16 12:20:52;;;;;;;497.00;463.10;;;14.20;99.90;;;;;;5086982;28;20200;-76
2021/10/16 12:23:19;;;;;;;509.40;474.35;;;14.30;99.90;;;;;;5087616;28;20209;-76
2021/10/16 12:25:51;;;;;;;553.05;515.15;;;14.30;99.90;;;;;;5086723;28;20212;-77
2021/10/16 12:28:19;;;;;;;531.80;495.23;;;14.40;99.90;;;;;;5093995;28;20202;-76
2021/10/16 12:31:09;;;;;;;524.95;488.67;;;14.20;99.90;;;;;;5089494;28;20204;-76
2021/10/16 12:33:57;;;;;;;552.80;515.63;;;14.20;99.90;;;;;;5086579;28;20209;-76
2021/10/16 12:36:25;;;;;;;542.40;505.50;;;14.20;99.90;;;;;;5090567;28;20251;-76